createdAt,value
2022-09-10T00:00:48.990Z,31.90
2022-09-10T00:06:10.414Z,27.20
2022-09-10T00:11:21.501Z,31.70
2022-09-10T00:16:27.067Z,29.80
2022-09-10T00:21:31.168Z,30.90
2022-09-10T00:26:39.934Z,27.70
2022-09-10T00:31:45.715Z,30.20
2022-09-10T00:36:50.572Z,31.30
2022-09-10T00:41:55.862Z,27.30
2022-09-10T00:47:00.074Z,28.50
2022-09-10T00:52:06.379Z,26.80
2022-09-10T00:57:17.712Z,32.40
2022-09-10T01:02:22.317Z,25.20
2022-09-10T01:07:29.625Z,35.60
2022-09-10T01:18:14.342Z,31.00
2022-09-10T01:23:42.845Z,23.40
2022-09-10T01:29:25.302Z,24.70
2022-09-10T01:34:55.981Z,29.90
2022-09-10T01:40:02.012Z,28.70
2022-09-10T01:45:07.220Z,27.90
2022-09-10T01:50:40.169Z,34.30
2022-09-10T01:56:04.481Z,31.30
2022-09-10T02:01:25.983Z,34.80
2022-09-10T02:06:36.989Z,33.20
2022-09-10T02:11:59.743Z,35.60
2022-09-10T02:17:03.258Z,38.30
2022-09-10T02:22:08.800Z,33.30
2022-09-10T02:27:15.978Z,42.70
2022-09-10T02:32:20.158Z,36.80
2022-09-10T02:37:24.890Z,39.50
2022-09-10T02:42:28.915Z,46.00
2022-09-10T02:47:33.204Z,40.10
2022-09-10T02:52:37.802Z,39.70
2022-09-10T02:57:42.487Z,35.00
2022-09-10T03:02:48.667Z,48.80
2022-09-10T03:07:56.361Z,44.00
2022-09-10T03:13:00.596Z,38.10
2022-09-10T03:18:04.651Z,40.70
2022-09-10T03:23:12.044Z,37.80
2022-09-10T03:28:17.415Z,45.20
2022-09-10T03:33:22.722Z,36.90
2022-09-10T03:38:28.163Z,34.00
2022-09-10T03:43:32.096Z,41.20
2022-09-10T03:48:35.587Z,44.00
2022-09-10T03:53:39.802Z,37.60
2022-09-10T03:58:44.357Z,36.80
2022-09-10T04:03:49.107Z,44.40
2022-09-10T04:08:53.316Z,50.50
2022-09-10T04:13:58.271Z,42.40
2022-09-10T04:19:03.025Z,41.90
2022-09-10T04:24:10.885Z,46.60
2022-09-10T04:29:16.840Z,41.50
2022-09-10T04:34:20.824Z,41.50
2022-09-10T04:39:25.335Z,42.50
2022-09-10T04:44:29.989Z,36.60
2022-09-10T04:49:35.242Z,44.60
2022-09-10T04:54:42.481Z,48.70
2022-09-10T04:59:47.170Z,52.60
2022-09-10T05:04:51.932Z,47.60
2022-09-10T05:09:58.110Z,47.00
2022-09-10T05:15:07.225Z,51.30
2022-09-10T05:20:11.715Z,46.20
2022-09-10T05:25:16.331Z,48.10
2022-09-10T05:30:20.625Z,50.10
2022-09-10T05:35:24.552Z,56.40
2022-09-10T05:40:29.965Z,47.80
2022-09-10T05:45:34.723Z,59.60
2022-09-10T05:50:39.192Z,43.80
2022-09-10T05:55:44.334Z,48.00
2022-09-10T06:00:52.166Z,41.20
2022-09-10T06:05:56.199Z,58.10
2022-09-10T06:11:04.020Z,46.80
2022-09-10T06:16:09.480Z,49.00
2022-09-10T06:21:17.638Z,46.60
2022-09-10T06:26:21.983Z,65.40
2022-09-10T06:31:25.829Z,45.40
2022-09-10T06:36:30.266Z,55.20
2022-09-10T06:41:35.645Z,37.30
2022-09-10T06:47:16.092Z,59.70
2022-09-10T06:52:05.132Z,32.80
2022-09-10T06:57:09.037Z,20.70
2022-09-10T07:02:13.513Z,31.40
2022-09-10T07:07:18.843Z,22.50
2022-09-10T07:12:24.742Z,21.40
2022-09-10T07:17:31.879Z,19.80
2022-09-10T07:22:38.933Z,19.70
2022-09-10T07:27:44.412Z,19.40
2022-09-10T07:32:51.584Z,16.70
2022-09-10T07:37:58.245Z,10.20
2022-09-10T07:43:03.684Z,19.00
2022-09-10T07:48:09.056Z,11.60
2022-09-10T07:53:14.294Z,12.40
2022-09-10T07:58:18.411Z,6.10
2022-09-10T08:03:23.284Z,8.30
2022-09-10T08:08:33.223Z,8.10
2022-09-10T08:13:38.249Z,8.50
2022-09-10T08:18:44.138Z,6.10
2022-09-10T08:23:55.074Z,8.20
2022-09-10T08:29:00.088Z,5.60
2022-09-10T08:34:05.004Z,9.20
2022-09-10T08:39:09.281Z,7.90
2022-09-10T08:44:37.766Z,5.60
2022-09-10T08:49:48.607Z,6.50
2022-09-10T08:55:17.199Z,9.10
2022-09-10T09:00:34.396Z,5.80
2022-09-10T09:05:55.597Z,5.20
2022-09-10T09:11:11.640Z,4.90
2022-09-10T09:16:48.030Z,6.80
2022-09-10T09:21:54.880Z,4.70
2022-09-10T09:32:18.459Z,4.90
2022-09-10T09:37:30.611Z,5.70
2022-09-10T09:43:46.047Z,4.80
2022-09-10T09:48:53.099Z,6.70
2022-09-10T09:54:38.931Z,6.60
2022-09-10T10:04:37.064Z,5.10
2022-09-10T10:09:44.084Z,5.90
2022-09-10T10:14:46.929Z,5.50
2022-09-10T10:20:09.231Z,5.90
2022-09-10T10:25:34.283Z,7.40
2022-09-10T10:30:41.704Z,9.50
2022-09-10T10:36:00.237Z,4.70
2022-09-10T10:41:10.083Z,5.50
2022-09-10T10:46:22.197Z,6.60
2022-09-10T10:51:51.146Z,7.90
2022-09-10T10:57:28.378Z,5.30
2022-09-10T11:02:45.654Z,4.00
2022-09-10T11:07:48.446Z,5.60
2022-09-10T11:13:06.701Z,7.40
2022-09-10T11:18:20.814Z,5.40
2022-09-10T11:23:46.159Z,4.90
2022-09-10T11:29:25.831Z,4.50
2022-09-10T11:34:52.032Z,12.00
2022-09-10T11:39:58.825Z,5.90
2022-09-10T11:45:23.074Z,7.10
2022-09-10T11:50:36.306Z,6.50
2022-09-10T11:55:50.811Z,5.70
2022-09-10T12:01:02.394Z,6.90
2022-09-10T12:06:17.763Z,7.40
2022-09-10T12:11:44.132Z,6.10
2022-09-10T12:17:03.079Z,7.60
2022-09-10T12:22:16.769Z,7.10
2022-09-10T12:27:21.364Z,6.50
2022-09-10T12:32:28.384Z,6.40
2022-09-10T12:37:30.588Z,6.10
2022-09-10T12:42:37.046Z,5.60
2022-09-10T12:47:46.682Z,7.20
2022-09-10T12:52:52.506Z,4.30
2022-09-10T12:58:28.923Z,9.50
2022-09-10T13:03:32.766Z,4.00
2022-09-10T13:08:44.066Z,2.60
2022-09-10T13:13:56.317Z,2.20
2022-09-10T13:19:14.671Z,3.00
2022-09-10T13:24:37.810Z,2.60
2022-09-10T13:29:44.487Z,2.40
2022-09-10T13:35:05.054Z,3.00
2022-09-10T13:40:27.680Z,2.90
2022-09-10T13:45:41.981Z,1.70
2022-09-10T13:51:01.247Z,3.40
2022-09-10T13:56:17.998Z,4.70
2022-09-10T14:01:41.029Z,2.50
2022-09-10T14:06:51.350Z,6.90
2022-09-10T14:11:57.435Z,2.20
2022-09-10T14:17:32.961Z,1.20
2022-09-10T14:22:39.284Z,2.80
2022-09-10T14:27:45.204Z,2.20
2022-09-10T14:32:49.725Z,2.50
2022-09-10T14:37:53.116Z,2.90
2022-09-10T14:43:15.400Z,1.70
2022-09-10T14:49:01.293Z,3.90
2022-09-10T14:54:03.379Z,2.10
2022-09-10T14:59:30.666Z,2.60
2022-09-10T15:04:32.724Z,4.10
2022-09-10T15:09:35.105Z,3.70
2022-09-10T15:14:37.619Z,3.90
2022-09-10T15:19:41.502Z,5.60
2022-09-10T15:25:07.946Z,7.20
2022-09-10T15:30:08.090Z,9.50
2022-09-10T15:35:10.101Z,9.10
2022-09-10T15:40:13.302Z,8.40
2022-09-10T15:45:19.183Z,10.40
2022-09-10T15:50:23.515Z,14.30
2022-09-10T15:55:28.096Z,10.60
2022-09-10T16:00:31.140Z,11.00
2022-09-10T16:05:34.992Z,12.30
2022-09-10T16:10:40.905Z,11.40
2022-09-10T16:15:44.442Z,16.60
2022-09-10T16:20:46.966Z,20.90
2022-09-10T16:25:55.383Z,16.40
2022-09-10T16:30:59.270Z,19.70
2022-09-10T16:36:06.838Z,25.60
2022-09-10T16:41:13.262Z,20.30
2022-09-10T16:46:17.448Z,20.30
2022-09-10T16:51:23.658Z,19.50
2022-09-10T16:56:25.968Z,23.10
2022-09-10T17:01:31.383Z,25.00
2022-09-10T17:06:35.615Z,21.60
2022-09-10T17:11:38.404Z,26.20
2022-09-10T17:16:44.476Z,29.90
2022-09-10T17:21:50.693Z,30.40
2022-09-10T17:26:55.327Z,33.60
2022-09-10T17:31:58.428Z,22.80
2022-09-10T17:37:02.362Z,26.80
2022-09-10T17:42:05.091Z,25.10
2022-09-10T17:47:09.662Z,27.70
2022-09-10T17:52:15.627Z,24.90
2022-09-10T17:57:20.428Z,22.80
2022-09-10T18:02:24.115Z,25.70
2022-09-10T18:07:28.769Z,24.80
2022-09-10T18:12:32.003Z,29.70
2022-09-10T18:17:34.382Z,24.70
2022-09-10T18:22:38.314Z,22.60
2022-09-10T18:27:43.377Z,25.00
2022-09-10T18:32:48.477Z,22.80
2022-09-10T18:37:52.502Z,28.60
2022-09-10T18:42:55.284Z,26.40
2022-09-10T18:47:58.115Z,35.20
2022-09-10T18:53:01.328Z,26.80
2022-09-10T18:58:03.529Z,34.50
2022-09-10T19:03:08.423Z,32.80
2022-09-10T19:08:12.240Z,34.40
2022-09-10T19:13:15.542Z,33.10
2022-09-10T19:18:19.200Z,31.60
2022-09-10T19:23:26.169Z,28.50
2022-09-10T19:28:35.665Z,33.80
2022-09-10T19:33:43.240Z,35.10
2022-09-10T19:38:50.222Z,29.60
2022-09-10T19:48:59.062Z,35.40
2022-09-10T19:54:03.837Z,33.00
2022-09-10T19:59:11.439Z,32.60
2022-09-10T20:04:16.394Z,40.40
2022-09-10T20:09:19.297Z,32.50
2022-09-10T20:14:22.765Z,37.70
2022-09-10T20:19:29.307Z,33.30
2022-09-10T20:24:37.083Z,32.60
2022-09-10T20:29:39.765Z,32.20
2022-09-10T20:34:43.175Z,35.40
2022-09-10T20:39:49.086Z,27.20
2022-09-10T20:44:51.939Z,33.10
2022-09-10T20:49:54.044Z,31.20
2022-09-10T20:54:56.353Z,27.00
2022-09-10T20:59:59.218Z,26.50
2022-09-10T21:05:02.627Z,31.00
2022-09-10T21:10:05.157Z,26.80
2022-09-10T21:15:08.508Z,28.00
2022-09-10T21:20:12.736Z,33.50
2022-09-10T21:25:15.640Z,28.40
2022-09-10T21:30:19.039Z,24.10
2022-09-10T21:35:23.308Z,27.30
2022-09-10T21:40:25.910Z,32.00
2022-09-10T21:45:28.716Z,31.20
2022-09-10T21:50:31.948Z,29.40
2022-09-10T21:55:34.589Z,31.50
2022-09-10T22:00:40.408Z,28.10
2022-09-10T22:05:43.899Z,31.50
2022-09-10T22:10:47.088Z,28.40
2022-09-10T22:15:51.588Z,26.50
2022-09-10T22:21:01.779Z,30.30
2022-09-10T22:26:26.086Z,30.40
2022-09-10T22:31:35.122Z,25.70
2022-09-10T22:36:40.163Z,30.10
2022-09-10T22:41:43.780Z,21.20
2022-09-10T22:46:47.385Z,25.60
2022-09-10T22:51:51.104Z,21.00
2022-09-10T22:56:54.156Z,26.20
2022-09-10T23:01:57.035Z,29.60
2022-09-10T23:07:00.902Z,26.20
2022-09-10T23:12:03.478Z,27.30
2022-09-10T23:17:06.000Z,26.50
2022-09-10T23:22:10.841Z,25.40
2022-09-10T23:27:14.030Z,24.70
2022-09-10T23:32:16.810Z,22.30
2022-09-10T23:37:19.572Z,21.60
2022-09-10T23:42:23.134Z,30.30
2022-09-10T23:47:25.647Z,29.80
2022-09-10T23:52:28.414Z,25.30
2022-09-10T23:57:31.250Z,23.90
